createdAt,value
2023-05-06T00:01:46.737Z,87.24
2023-05-06T00:06:49.819Z,87.60
2023-05-06T00:11:52.589Z,87.29
2023-05-06T00:16:56.707Z,87.70
2023-05-06T00:22:00.015Z,87.39
2023-05-06T00:27:02.786Z,88.42
2023-05-06T00:32:07.188Z,89.01
2023-05-06T00:37:09.965Z,88.53
2023-05-06T00:42:12.745Z,88.22
2023-05-06T00:47:18.129Z,88.06
2023-05-06T00:52:21.193Z,87.40
2023-05-06T00:57:24.673Z,86.66
2023-05-06T01:02:43.476Z,86.94
2023-05-06T01:07:56.739Z,87.07
2023-05-06T01:13:08.173Z,87.05
2023-05-06T01:18:18.031Z,86.91
2023-05-06T01:23:22.463Z,86.97
2023-05-06T01:28:26.683Z,87.63
2023-05-06T01:33:36.129Z,87.85
2023-05-06T01:38:46.879Z,87.38
2023-05-06T01:43:50.370Z,87.35
2023-05-06T01:48:56.205Z,87.55
2023-05-06T01:54:00.705Z,87.38
2023-05-06T01:59:03.846Z,87.89
2023-05-06T02:04:07.115Z,87.97
2023-05-06T02:09:11.855Z,88.02
2023-05-06T02:14:19.213Z,88.36
2023-05-06T02:19:22.738Z,88.50
2023-05-06T02:24:27.225Z,87.92
2023-05-06T02:29:29.957Z,87.83
2023-05-06T02:34:33.580Z,88.22
2023-05-06T02:39:37.665Z,87.70
2023-05-06T02:44:40.697Z,88.19
2023-05-06T02:49:43.509Z,88.26
2023-05-06T02:54:47.627Z,88.04
2023-05-06T02:59:50.363Z,87.06
2023-05-06T03:04:53.109Z,87.70
2023-05-06T03:09:57.433Z,87.60
2023-05-06T03:15:00.389Z,87.56
2023-05-06T03:20:03.862Z,87.82
2023-05-06T03:25:10.108Z,87.77
2023-05-06T03:30:15.703Z,87.61
2023-05-06T03:35:19.940Z,87.74
2023-05-06T03:40:28.864Z,87.44
2023-05-06T03:45:32.911Z,87.34
2023-05-06T03:50:38.612Z,87.56
2023-05-06T03:55:42.921Z,87.70
2023-05-06T04:00:47.336Z,88.06
2023-05-06T04:05:51.187Z,88.61
2023-05-06T04:11:04.493Z,88.38
2023-05-06T04:16:09.681Z,88.49
2023-05-06T04:21:16.725Z,88.26
2023-05-06T04:26:25.831Z,88.34
2023-05-06T04:36:37.495Z,88.58
2023-05-06T04:41:52.435Z,86.32
2023-05-06T04:47:02.420Z,87.17
2023-05-06T04:52:06.080Z,87.76
2023-05-06T04:57:11.654Z,88.85
2023-05-06T05:02:17.324Z,88.12
2023-05-06T05:07:20.378Z,88.42
2023-05-06T05:12:25.360Z,89.03
2023-05-06T05:17:29.363Z,88.74
2023-05-06T05:22:33.420Z,89.27
2023-05-06T05:27:38.372Z,87.52
2023-05-06T05:32:41.522Z,88.92
2023-05-06T05:37:44.498Z,86.04
2023-05-06T05:42:48.682Z,86.59
2023-05-06T05:47:59.114Z,87.71
2023-05-06T05:53:02.426Z,87.58
2023-05-06T05:58:08.269Z,84.65
2023-05-06T06:03:11.660Z,86.24
2023-05-06T06:08:14.869Z,86.65
2023-05-06T06:13:19.375Z,87.02
2023-05-06T06:18:22.279Z,85.75
2023-05-06T06:23:25.323Z,82.75
2023-05-06T06:28:29.748Z,83.17
2023-05-06T06:33:32.604Z,81.43
2023-05-06T06:38:35.744Z,82.31
2023-05-06T06:43:39.870Z,81.96
2023-05-06T06:48:59.502Z,83.87
2023-05-06T06:54:02.261Z,79.77
2023-05-06T06:59:06.439Z,81.17
2023-05-06T07:04:09.294Z,83.95
2023-05-06T07:09:13.285Z,80.65
2023-05-06T07:14:17.480Z,79.39
2023-05-06T07:19:20.315Z,80.32
2023-05-06T07:24:23.202Z,82.97
2023-05-06T07:29:27.364Z,81.25
2023-05-06T07:34:30.290Z,77.89
2023-05-06T07:39:33.085Z,79.46
2023-05-06T07:44:37.309Z,79.44
2023-05-06T07:49:40.153Z,76.50
2023-05-06T07:54:42.930Z,75.71
2023-05-06T07:59:48.558Z,72.62
2023-05-06T08:04:51.937Z,72.30
2023-05-06T08:09:54.942Z,72.66
2023-05-06T08:14:59.148Z,74.83
2023-05-06T08:20:02.002Z,77.46
2023-05-06T08:25:05.492Z,70.35
2023-05-06T08:30:11.191Z,72.86
2023-05-06T08:35:14.097Z,72.22
2023-05-06T08:40:20.536Z,67.54
2023-05-06T08:45:25.515Z,64.82
2023-05-06T08:50:29.961Z,64.07
2023-05-06T08:55:35.108Z,64.06
2023-05-06T09:00:40.117Z,65.74
2023-05-06T09:05:42.957Z,60.52
2023-05-06T09:10:46.444Z,62.87
2023-05-06T09:15:50.949Z,60.19
2023-05-06T09:20:53.754Z,56.67
2023-05-06T09:25:58.256Z,58.14
2023-05-06T09:31:02.522Z,54.77
2023-05-06T09:36:06.858Z,55.06
2023-05-06T09:41:11.169Z,53.84
2023-05-06T09:46:15.751Z,52.01
2023-05-06T09:51:18.805Z,51.37
2023-05-06T09:56:22.591Z,51.95
2023-05-06T10:01:36.252Z,52.72
2023-05-06T10:06:41.733Z,50.08
2023-05-06T10:11:46.544Z,45.21
2023-05-06T10:16:51.386Z,44.27
2023-05-06T10:21:58.705Z,44.64
2023-05-06T10:27:06.518Z,45.81
2023-05-06T10:32:12.455Z,42.54
2023-05-06T10:37:16.085Z,43.52
2023-05-06T10:42:19.002Z,42.58
2023-05-06T10:47:23.365Z,41.50
2023-05-06T10:52:26.258Z,42.54
2023-05-06T10:57:41.944Z,41.23
2023-05-06T11:02:47.565Z,41.63
2023-05-06T11:07:51.589Z,38.19
2023-05-06T11:12:55.808Z,41.57
2023-05-06T11:18:42.890Z,40.57
2023-05-06T11:24:07.953Z,37.96
2023-05-06T11:29:11.300Z,39.44
2023-05-06T11:34:22.951Z,37.51
2023-05-06T11:39:30.218Z,35.44
2023-05-06T11:44:35.058Z,33.60
2023-05-06T11:49:41.861Z,34.97
2023-05-06T11:54:44.685Z,33.28
2023-05-06T11:59:47.601Z,35.17
2023-05-06T12:04:52.632Z,33.26
2023-05-06T12:09:55.802Z,34.07
2023-05-06T12:14:59.125Z,34.25
2023-05-06T12:20:04.044Z,32.36
2023-05-06T12:25:17.211Z,32.71
2023-05-06T12:30:30.377Z,35.14
2023-05-06T12:35:34.836Z,34.97
2023-05-06T12:40:38.340Z,34.84
2023-05-06T12:45:41.468Z,37.38
2023-05-06T12:50:46.369Z,39.32
2023-05-06T12:55:49.150Z,40.41
2023-05-06T13:00:52.086Z,38.54
2023-05-06T13:05:56.304Z,37.63
2023-05-06T13:11:01.575Z,35.41
2023-05-06T13:16:04.623Z,33.19
2023-05-06T13:21:09.365Z,31.94
2023-05-06T13:26:12.134Z,34.46
2023-05-06T13:31:14.927Z,35.05
2023-05-06T13:36:19.307Z,33.00
2023-05-06T13:41:24.277Z,34.85
2023-05-06T13:46:27.791Z,36.45
2023-05-06T13:51:33.493Z,35.91
2023-05-06T13:56:36.327Z,37.08
2023-05-06T14:01:40.223Z,39.31
2023-05-06T14:06:44.383Z,38.55
2023-05-06T14:11:47.176Z,37.72
2023-05-06T14:16:51.690Z,38.22
2023-05-06T14:21:55.830Z,36.44
2023-05-06T14:26:58.661Z,36.70
2023-05-06T14:32:01.618Z,37.40
2023-05-06T14:37:05.920Z,36.97
2023-05-06T14:42:08.706Z,37.07
2023-05-06T14:47:11.521Z,38.74
2023-05-06T14:52:17.141Z,39.54
2023-05-06T14:57:19.931Z,39.25
2023-05-06T15:02:22.730Z,39.21
2023-05-06T15:07:26.977Z,37.54
2023-05-06T15:12:29.847Z,36.86
2023-05-06T15:17:32.771Z,37.30
2023-05-06T15:22:39.255Z,36.16
2023-05-06T15:27:42.542Z,36.62
2023-05-06T15:32:45.356Z,36.95
2023-05-06T15:37:49.645Z,37.83
2023-05-06T15:42:52.622Z,37.53
2023-05-06T15:47:56.228Z,37.97
2023-05-06T15:53:01.144Z,37.58
2023-05-06T15:58:04.012Z,37.65
2023-05-06T16:03:09.889Z,37.39
2023-05-06T16:08:15.993Z,37.67
2023-05-06T16:13:20.070Z,39.18
2023-05-06T16:18:23.306Z,40.56
2023-05-06T16:23:27.431Z,39.86
2023-05-06T16:28:30.263Z,40.70
2023-05-06T16:33:33.072Z,40.53
2023-05-06T16:38:37.696Z,40.43
2023-05-06T16:43:40.985Z,40.55
2023-05-06T16:48:43.950Z,39.75
2023-05-06T16:53:48.228Z,39.07
2023-05-06T16:58:51.078Z,38.77
2023-05-06T17:03:53.834Z,35.63
2023-05-06T17:08:58.668Z,34.54
2023-05-06T17:14:01.428Z,35.13
2023-05-06T17:19:04.229Z,36.95
2023-05-06T17:24:08.644Z,39.09
2023-05-06T17:29:11.473Z,41.04
2023-05-06T17:34:14.378Z,42.69
2023-05-06T17:39:18.537Z,44.38
2023-05-06T17:44:21.530Z,45.16
2023-05-06T17:49:24.369Z,46.63
2023-05-06T17:54:32.343Z,47.60
2023-05-06T17:59:35.215Z,48.47
2023-05-06T18:04:38.019Z,49.05
2023-05-06T18:09:42.550Z,49.62
2023-05-06T18:14:45.474Z,50.21
2023-05-06T18:19:48.232Z,50.79
2023-05-06T18:24:55.170Z,51.27
2023-05-06T18:29:59.197Z,51.86
2023-05-06T18:35:02.117Z,52.17
2023-05-06T18:40:09.198Z,52.86
2023-05-06T18:45:13.160Z,53.29
2023-05-06T18:50:16.174Z,53.69
2023-05-06T18:55:20.620Z,54.17
2023-05-06T19:00:24.298Z,54.68
2023-05-06T19:05:27.728Z,55.24
2023-05-06T19:10:32.069Z,55.34
2023-05-06T19:15:35.658Z,55.02
2023-05-06T19:20:38.896Z,55.20
2023-05-06T19:25:43.091Z,55.01
2023-05-06T19:30:45.934Z,54.88
2023-05-06T19:35:48.821Z,54.84
2023-05-06T19:40:53.055Z,55.09
2023-05-06T19:45:55.995Z,55.40
2023-05-06T19:50:58.980Z,55.65
2023-05-06T19:56:10.786Z,55.91
2023-05-06T20:01:13.744Z,55.87
2023-05-06T20:06:17.147Z,55.84
2023-05-06T20:11:21.398Z,55.99
2023-05-06T20:16:24.527Z,56.01
2023-05-06T20:21:27.432Z,56.88
2023-05-06T20:26:31.715Z,56.90
2023-05-06T20:31:34.702Z,57.20
2023-05-06T20:36:37.721Z,57.49
2023-05-06T20:41:41.952Z,57.88
2023-05-06T20:46:45.198Z,57.78
2023-05-06T20:51:48.005Z,58.62
2023-05-06T20:56:52.202Z,57.90
2023-05-06T21:01:55.039Z,59.58
2023-05-06T21:06:58.263Z,61.24
2023-05-06T21:12:02.632Z,63.60
2023-05-06T21:17:05.673Z,64.45
2023-05-06T21:22:10.895Z,65.53
2023-05-06T21:27:16.706Z,66.61
2023-05-06T21:32:19.905Z,66.95
2023-05-06T21:37:22.920Z,67.26
2023-05-06T21:42:27.756Z,67.23
2023-05-06T21:47:30.922Z,68.50
2023-05-06T21:52:34.197Z,68.05
2023-05-06T21:57:38.897Z,67.94
2023-05-06T22:02:42.173Z,67.71
2023-05-06T22:07:45.346Z,67.08
2023-05-06T22:12:49.735Z,67.18
2023-05-06T22:17:53.038Z,66.46
2023-05-06T22:22:55.868Z,66.43
2023-05-06T22:27:59.963Z,66.86
2023-05-06T22:33:03.135Z,66.43
2023-05-06T22:38:05.890Z,66.39
2023-05-06T22:43:10.010Z,65.81
2023-05-06T22:48:12.856Z,65.64
2023-05-06T22:53:15.854Z,64.99
2023-05-06T22:58:20.013Z,65.44
2023-05-06T23:03:23.363Z,66.20
2023-05-06T23:08:26.177Z,66.18
2023-05-06T23:13:31.252Z,66.34
2023-05-06T23:18:33.995Z,66.16
2023-05-06T23:23:36.796Z,66.09
2023-05-06T23:28:40.887Z,65.65
2023-05-06T23:33:43.590Z,65.91
2023-05-06T23:38:46.388Z,65.91
2023-05-06T23:43:50.523Z,65.63
2023-05-06T23:48:53.304Z,65.34
2023-05-06T23:53:56.322Z,65.64
2023-05-06T23:59:00.453Z,65.54
